sensor_id;sensor_type;location;lat;lon;timestamp;P1;durP1;ratioP1;P2;durP2;ratioP2
19842;SDS011;10082;51.038;6.992;2023-07-28T00:01:40;2.92;;;1.80;;
19842;SDS011;10082;51.038;6.992;2023-07-28T00:04:07;2.13;;;1.80;;
19842;SDS011;10082;51.038;6.992;2023-07-28T00:06:36;3.42;;;2.17;;
19842;SDS011;10082;51.038;6.992;2023-07-28T00:09:06;2.33;;;2.13;;
19842;SDS011;10082;51.038;6.992;2023-07-28T00:11:35;2.65;;;2.10;;
19842;SDS011;10082;51.038;6.992;2023-07-28T00:14:03;2.10;;;1.95;;
19842;SDS011;10082;51.038;6.992;2023-07-28T00:16:31;1.90;;;1.80;;
19842;SDS011;10082;51.038;6.992;2023-07-28T00:18:58;2.28;;;1.73;;
19842;SDS011;10082;51.038;6.992;2023-07-28T00:21:26;3.22;;;2.13;;
19842;SDS011;10082;51.038;6.992;2023-07-28T00:23:54;2.17;;;1.60;;
19842;SDS011;10082;51.038;6.992;2023-07-28T00:26:23;4.75;;;1.52;;
19842;SDS011;10082;51.038;6.992;2023-07-28T00:28:52;2.13;;;1.52;;
19842;SDS011;10082;51.038;6.992;2023-07-28T00:31:23;2.33;;;1.77;;
19842;SDS011;10082;51.038;6.992;2023-07-28T00:33:52;1.60;;;1.50;;
19842;SDS011;10082;51.038;6.992;2023-07-28T00:36:19;2.40;;;1.50;;
19842;SDS011;10082;51.038;6.992;2023-07-28T00:38:50;1.55;;;1.45;;
19842;SDS011;10082;51.038;6.992;2023-07-28T00:41:17;1.60;;;1.50;;
19842;SDS011;10082;51.038;6.992;2023-07-28T00:43:45;2.83;;;2.00;;
19842;SDS011;10082;51.038;6.992;2023-07-28T00:46:14;3.83;;;1.70;;
19842;SDS011;10082;51.038;6.992;2023-07-28T00:48:45;2.47;;;1.67;;
19842;SDS011;10082;51.038;6.992;2023-07-28T00:51:16;1.65;;;1.50;;
19842;SDS011;10082;51.038;6.992;2023-07-28T00:53:44;1.65;;;1.50;;
19842;SDS011;10082;51.038;6.992;2023-07-28T00:56:12;1.80;;;1.70;;
19842;SDS011;10082;51.038;6.992;2023-07-28T00:58:40;1.20;;;1.10;;
19842;SDS011;10082;51.038;6.992;2023-07-28T01:01:08;1.77;;;1.58;;
19842;SDS011;10082;51.038;6.992;2023-07-28T01:03:41;2.00;;;1.60;;
19842;SDS011;10082;51.038;6.992;2023-07-28T01:06:13;1.60;;;1.50;;
19842;SDS011;10082;51.038;6.992;2023-07-28T01:08:52;1.20;;;1.10;;
19842;SDS011;10082;51.038;6.992;2023-07-28T01:11:32;1.58;;;1.33;;
19842;SDS011;10082;51.038;6.992;2023-07-28T01:14:06;1.70;;;1.60;;
19842;SDS011;10082;51.038;6.992;2023-07-28T01:16:33;1.98;;;1.40;;
19842;SDS011;10082;51.038;6.992;2023-07-28T01:19:03;1.55;;;1.45;;
19842;SDS011;10082;51.038;6.992;2023-07-28T01:21:30;1.35;;;1.13;;
19842;SDS011;10082;51.038;6.992;2023-07-28T01:24:01;1.40;;;1.17;;
19842;SDS011;10082;51.038;6.992;2023-07-28T01:26:37;1.30;;;1.20;;
19842;SDS011;10082;51.038;6.992;2023-07-28T01:29:06;3.10;;;1.20;;
19842;SDS011;10082;51.038;6.992;2023-07-28T01:31:34;1.33;;;1.10;;
19842;SDS011;10082;51.038;6.992;2023-07-28T01:34:01;2.10;;;1.30;;
19842;SDS011;10082;51.038;6.992;2023-07-28T01:36:28;4.25;;;1.60;;
19842;SDS011;10082;51.038;6.992;2023-07-28T01:38:56;2.35;;;1.35;;
19842;SDS011;10082;51.038;6.992;2023-07-28T01:41:26;1.40;;;1.30;;
19842;SDS011;10082;51.038;6.992;2023-07-28T01:43:55;2.47;;;1.50;;
19842;SDS011;10082;51.038;6.992;2023-07-28T01:46:22;2.25;;;1.30;;
19842;SDS011;10082;51.038;6.992;2023-07-28T01:48:50;1.73;;;1.05;;
19842;SDS011;10082;51.038;6.992;2023-07-28T01:51:17;2.13;;;1.38;;
19842;SDS011;10082;51.038;6.992;2023-07-28T01:53:45;2.10;;;1.55;;
19842;SDS011;10082;51.038;6.992;2023-07-28T01:56:12;3.83;;;1.40;;
19842;SDS011;10082;51.038;6.992;2023-07-28T01:58:40;1.25;;;1.15;;
19842;SDS011;10082;51.038;6.992;2023-07-28T02:01:10;1.88;;;1.48;;
19842;SDS011;10082;51.038;6.992;2023-07-28T02:03:42;3.20;;;1.80;;
19842;SDS011;10082;51.038;6.992;2023-07-28T02:06:10;1.90;;;1.45;;
19842;SDS011;10082;51.038;6.992;2023-07-28T02:08:37;1.67;;;1.58;;
19842;SDS011;10082;51.038;6.992;2023-07-28T02:11:06;2.40;;;1.77;;
19842;SDS011;10082;51.038;6.992;2023-07-28T02:13:34;2.03;;;1.65;;
19842;SDS011;10082;51.038;6.992;2023-07-28T02:16:05;1.60;;;1.50;;
19842;SDS011;10082;51.038;6.992;2023-07-28T02:18:34;1.60;;;1.50;;
19842;SDS011;10082;51.038;6.992;2023-07-28T02:21:03;1.70;;;1.60;;
19842;SDS011;10082;51.038;6.992;2023-07-28T02:23:30;2.00;;;1.90;;
19842;SDS011;10082;51.038;6.992;2023-07-28T02:29:45;1.83;;;1.73;;
19842;SDS011;10082;51.038;6.992;2023-07-28T02:32:13;2.00;;;1.90;;
19842;SDS011;10082;51.038;6.992;2023-07-28T02:34:42;2.30;;;2.10;;
19842;SDS011;10082;51.038;6.992;2023-07-28T02:37:12;2.20;;;2.00;;
19842;SDS011;10082;51.038;6.992;2023-07-28T02:39:43;1.75;;;1.65;;
19842;SDS011;10082;51.038;6.992;2023-07-28T02:42:11;1.83;;;1.73;;
19842;SDS011;10082;51.038;6.992;2023-07-28T02:44:39;2.35;;;1.70;;
19842;SDS011;10082;51.038;6.992;2023-07-28T02:47:07;2.00;;;1.90;;
19842;SDS011;10082;51.038;6.992;2023-07-28T02:49:37;2.33;;;2.15;;
19842;SDS011;10082;51.038;6.992;2023-07-28T02:52:11;1.73;;;1.63;;
19842;SDS011;10082;51.038;6.992;2023-07-28T02:54:39;2.28;;;1.88;;
19842;SDS011;10082;51.038;6.992;2023-07-28T02:57:07;1.83;;;1.52;;
19842;SDS011;10082;51.038;6.992;2023-07-28T02:59:36;2.53;;;2.25;;
19842;SDS011;10082;51.038;6.992;2023-07-28T03:02:04;2.10;;;2.00;;
19842;SDS011;10082;51.038;6.992;2023-07-28T03:04:33;2.17;;;2.08;;
19842;SDS011;10082;51.038;6.992;2023-07-28T03:07:21;3.30;;;2.20;;
19842;SDS011;10082;51.038;6.992;2023-07-28T03:09:57;2.53;;;2.33;;
19842;SDS011;10082;51.038;6.992;2023-07-28T03:12:25;3.30;;;2.60;;
19842;SDS011;10082;51.038;6.992;2023-07-28T03:14:53;2.70;;;2.50;;
19842;SDS011;10082;51.038;6.992;2023-07-28T03:17:20;2.97;;;2.78;;
19842;SDS011;10082;51.038;6.992;2023-07-28T03:19:48;4.30;;;3.40;;
19842;SDS011;10082;51.038;6.992;2023-07-28T03:22:16;4.28;;;3.88;;
19842;SDS011;10082;51.038;6.992;2023-07-28T03:24:45;3.58;;;3.30;;
19842;SDS011;10082;51.038;6.992;2023-07-28T03:27:14;3.15;;;2.92;;
19842;SDS011;10082;51.038;6.992;2023-07-28T03:29:42;3.92;;;3.63;;
19842;SDS011;10082;51.038;6.992;2023-07-28T03:32:10;4.18;;;3.78;;
19842;SDS011;10082;51.038;6.992;2023-07-28T03:34:38;5.05;;;3.80;;
19842;SDS011;10082;51.038;6.992;2023-07-28T03:37:08;4.38;;;4.07;;
19842;SDS011;10082;51.038;6.992;2023-07-28T03:39:37;3.00;;;2.80;;
19842;SDS011;10082;51.038;6.992;2023-07-28T03:42:06;4.30;;;4.00;;
19842;SDS011;10082;51.038;6.992;2023-07-28T03:44:35;4.70;;;4.07;;
19842;SDS011;10082;51.038;6.992;2023-07-28T03:47:09;5.20;;;4.70;;
19842;SDS011;10082;51.038;6.992;2023-07-28T03:49:37;3.60;;;3.40;;
19842;SDS011;10082;51.038;6.992;2023-07-28T03:52:07;4.40;;;3.83;;
19842;SDS011;10082;51.038;6.992;2023-07-28T03:54:34;4.47;;;3.60;;
19842;SDS011;10082;51.038;6.992;2023-07-28T03:57:03;4.43;;;4.00;;
19842;SDS011;10082;51.038;6.992;2023-07-28T03:59:34;5.22;;;3.60;;
19842;SDS011;10082;51.038;6.992;2023-07-28T04:02:02;3.72;;;3.10;;
19842;SDS011;10082;51.038;6.992;2023-07-28T04:04:40;3.85;;;3.55;;
19842;SDS011;10082;51.038;6.992;2023-07-28T04:07:08;3.75;;;3.45;;
19842;SDS011;10082;51.038;6.992;2023-07-28T04:09:35;3.67;;;3.35;;
19842;SDS011;10082;51.038;6.992;2023-07-28T04:12:03;4.28;;;3.85;;
19842;SDS011;10082;51.038;6.992;2023-07-28T04:14:31;3.53;;;3.20;;
19842;SDS011;10082;51.038;6.992;2023-07-28T04:17:00;4.65;;;4.25;;
19842;SDS011;10082;51.038;6.992;2023-07-28T04:19:27;4.40;;;3.75;;
19842;SDS011;10082;51.038;6.992;2023-07-28T04:21:56;4.28;;;3.88;;
19842;SDS011;10082;51.038;6.992;2023-07-28T04:24:26;3.88;;;3.58;;
19842;SDS011;10082;51.038;6.992;2023-07-28T04:26:54;4.10;;;3.70;;
19842;SDS011;10082;51.038;6.992;2023-07-28T04:29:21;4.38;;;4.07;;
19842;SDS011;10082;51.038;6.992;2023-07-28T04:31:49;3.90;;;3.60;;
19842;SDS011;10082;51.038;6.992;2023-07-28T04:34:27;4.60;;;4.20;;
19842;SDS011;10082;51.038;6.992;2023-07-28T04:37:18;4.05;;;3.70;;
19842;SDS011;10082;51.038;6.992;2023-07-28T04:39:58;4.07;;;3.63;;
19842;SDS011;10082;51.038;6.992;2023-07-28T04:42:32;3.45;;;3.15;;
19842;SDS011;10082;51.038;6.992;2023-07-28T04:45:00;3.70;;;3.40;;
19842;SDS011;10082;51.038;6.992;2023-07-28T04:47:28;3.00;;;2.80;;
19842;SDS011;10082;51.038;6.992;2023-07-28T04:49:57;3.70;;;3.40;;
19842;SDS011;10082;51.038;6.992;2023-07-28T04:52:43;3.63;;;3.33;;
19842;SDS011;10082;51.038;6.992;2023-07-28T04:55:37;5.20;;;3.58;;
19842;SDS011;10082;51.038;6.992;2023-07-28T04:58:04;3.97;;;3.40;;
19842;SDS011;10082;51.038;6.992;2023-07-28T05:00:43;4.03;;;3.63;;
19842;SDS011;10082;51.038;6.992;2023-07-28T05:03:10;4.45;;;3.72;;
19842;SDS011;10082;51.038;6.992;2023-07-28T05:05:46;4.18;;;3.78;;
19842;SDS011;10082;51.038;6.992;2023-07-28T05:08:13;4.32;;;3.92;;
19842;SDS011;10082;51.038;6.992;2023-07-28T05:10:44;4.68;;;4.28;;
19842;SDS011;10082;51.038;6.992;2023-07-28T05:13:12;4.40;;;4.10;;
19842;SDS011;10082;51.038;6.992;2023-07-28T05:15:54;5.68;;;3.90;;
19842;SDS011;10082;51.038;6.992;2023-07-28T05:18:40;4.82;;;4.43;;
19842;SDS011;10082;51.038;6.992;2023-07-28T05:21:28;4.30;;;3.92;;
19842;SDS011;10082;51.038;6.992;2023-07-28T05:23:56;4.50;;;4.10;;
19842;SDS011;10082;51.038;6.992;2023-07-28T05:26:25;5.30;;;4.90;;
19842;SDS011;10082;51.038;6.992;2023-07-28T05:28:56;5.47;;;4.75;;
19842;SDS011;10082;51.038;6.992;2023-07-28T05:31:31;4.93;;;4.60;;
19842;SDS011;10082;51.038;6.992;2023-07-28T05:34:04;5.40;;;4.40;;
19842;SDS011;10082;51.038;6.992;2023-07-28T05:36:33;4.97;;;4.57;;
19842;SDS011;10082;51.038;6.992;2023-07-28T05:39:01;5.47;;;4.40;;
19842;SDS011;10082;51.038;6.992;2023-07-28T05:41:37;5.63;;;4.50;;
19842;SDS011;10082;51.038;6.992;2023-07-28T05:44:09;4.97;;;4.50;;
19842;SDS011;10082;51.038;6.992;2023-07-28T05:46:38;4.82;;;4.45;;
19842;SDS011;10082;51.038;6.992;2023-07-28T05:49:08;4.57;;;4.20;;
19842;SDS011;10082;51.038;6.992;2023-07-28T05:51:37;5.20;;;4.70;;
19842;SDS011;10082;51.038;6.992;2023-07-28T05:54:04;5.00;;;4.60;;
19842;SDS011;10082;51.038;6.992;2023-07-28T05:56:32;5.63;;;4.97;;
19842;SDS011;10082;51.038;6.992;2023-07-28T05:59:03;5.93;;;5.20;;
19842;SDS011;10082;51.038;6.992;2023-07-28T06:01:33;4.97;;;4.47;;
19842;SDS011;10082;51.038;6.992;2023-07-28T06:04:23;5.28;;;4.88;;
19842;SDS011;10082;51.038;6.992;2023-07-28T06:06:56;4.80;;;4.40;;
19842;SDS011;10082;51.038;6.992;2023-07-28T06:09:24;4.60;;;4.20;;
19842;SDS011;10082;51.038;6.992;2023-07-28T06:11:51;4.85;;;4.47;;
19842;SDS011;10082;51.038;6.992;2023-07-28T06:14:19;5.20;;;4.68;;
19842;SDS011;10082;51.038;6.992;2023-07-28T06:16:46;4.38;;;3.75;;
19842;SDS011;10082;51.038;6.992;2023-07-28T06:19:15;4.22;;;3.92;;
19842;SDS011;10082;51.038;6.992;2023-07-28T06:21:48;5.57;;;4.50;;
19842;SDS011;10082;51.038;6.992;2023-07-28T06:24:17;4.68;;;3.95;;
19842;SDS011;10082;51.038;6.992;2023-07-28T06:26:48;4.47;;;3.80;;
19842;SDS011;10082;51.038;6.992;2023-07-28T06:29:16;4.18;;;3.80;;
19842;SDS011;10082;51.038;6.992;2023-07-28T06:31:43;4.00;;;3.70;;
19842;SDS011;10082;51.038;6.992;2023-07-28T06:34:11;4.00;;;3.40;;
19842;SDS011;10082;51.038;6.992;2023-07-28T06:36:37;4.15;;;3.75;;
19842;SDS011;10082;51.038;6.992;2023-07-28T06:39:08;4.15;;;3.72;;
19842;SDS011;10082;51.038;6.992;2023-07-28T06:41:37;3.78;;;3.47;;
19842;SDS011;10082;51.038;6.992;2023-07-28T06:44:07;5.18;;;4.30;;
19842;SDS011;10082;51.038;6.992;2023-07-28T06:46:34;5.30;;;4.38;;
19842;SDS011;10082;51.038;6.992;2023-07-28T06:49:01;4.32;;;4.03;;
19842;SDS011;10082;51.038;6.992;2023-07-28T06:51:28;4.82;;;4.40;;
19842;SDS011;10082;51.038;6.992;2023-07-28T06:53:56;5.13;;;4.57;;
19842;SDS011;10082;51.038;6.992;2023-07-28T06:56:23;5.28;;;4.78;;
19842;SDS011;10082;51.038;6.992;2023-07-28T06:58:51;5.07;;;4.68;;
19842;SDS011;10082;51.038;6.992;2023-07-28T07:01:19;5.53;;;5.03;;
19842;SDS011;10082;51.038;6.992;2023-07-28T07:03:47;5.93;;;4.93;;
19842;SDS011;10082;51.038;6.992;2023-07-28T07:06:14;4.85;;;4.43;;
19842;SDS011;10082;51.038;6.992;2023-07-28T07:08:42;5.90;;;5.40;;
19842;SDS011;10082;51.038;6.992;2023-07-28T07:11:09;5.60;;;5.10;;
19842;SDS011;10082;51.038;6.992;2023-07-28T07:13:36;5.68;;;5.13;;
19842;SDS011;10082;51.038;6.992;2023-07-28T07:16:08;6.15;;;5.55;;
19842;SDS011;10082;51.038;6.992;2023-07-28T07:18:41;5.63;;;5.22;;
19842;SDS011;10082;51.038;6.992;2023-07-28T07:21:09;6.70;;;6.10;;
19842;SDS011;10082;51.038;6.992;2023-07-28T07:23:36;6.25;;;5.15;;
19842;SDS011;10082;51.038;6.992;2023-07-28T07:26:03;6.85;;;5.38;;
19842;SDS011;10082;51.038;6.992;2023-07-28T07:28:30;5.97;;;5.47;;
19842;SDS011;10082;51.038;6.992;2023-07-28T07:30:57;5.50;;;4.88;;
19842;SDS011;10082;51.038;6.992;2023-07-28T07:33:26;5.95;;;5.45;;
19842;SDS011;10082;51.038;6.992;2023-07-28T07:35:54;5.50;;;5.00;;
19842;SDS011;10082;51.038;6.992;2023-07-28T07:38:21;5.20;;;4.70;;
19842;SDS011;10082;51.038;6.992;2023-07-28T07:40:48;5.22;;;4.82;;
19842;SDS011;10082;51.038;6.992;2023-07-28T07:43:15;6.22;;;4.97;;
19842;SDS011;10082;51.038;6.992;2023-07-28T07:45:45;5.30;;;4.80;;
19842;SDS011;10082;51.038;6.992;2023-07-28T07:48:15;5.50;;;5.10;;
19842;SDS011;10082;51.038;6.992;2023-07-28T07:50:44;6.00;;;5.50;;
19842;SDS011;10082;51.038;6.992;2023-07-28T07:53:11;6.15;;;5.65;;
19842;SDS011;10082;51.038;6.992;2023-07-28T07:55:38;5.70;;;5.30;;
19842;SDS011;10082;51.038;6.992;2023-07-28T07:58:05;5.80;;;5.35;;
19842;SDS011;10082;51.038;6.992;2023-07-28T08:00:32;5.72;;;5.32;;
19842;SDS011;10082;51.038;6.992;2023-07-28T08:02:59;6.18;;;5.70;;
19842;SDS011;10082;51.038;6.992;2023-07-28T08:05:26;6.65;;;5.97;;
19842;SDS011;10082;51.038;6.992;2023-07-28T08:07:57;6.30;;;5.85;;
19842;SDS011;10082;51.038;6.992;2023-07-28T08:10:24;6.00;;;5.50;;
19842;SDS011;10082;51.038;6.992;2023-07-28T08:12:51;5.22;;;4.82;;
19842;SDS011;10082;51.038;6.992;2023-07-28T08:15:18;5.13;;;4.70;;
19842;SDS011;10082;51.038;6.992;2023-07-28T08:17:46;4.82;;;4.43;;
19842;SDS011;10082;51.038;6.992;2023-07-28T08:20:13;3.92;;;3.63;;
19842;SDS011;10082;51.038;6.992;2023-07-28T08:22:40;4.30;;;3.90;;
19842;SDS011;10082;51.038;6.992;2023-07-28T08:25:09;4.50;;;4.20;;
19842;SDS011;10082;51.038;6.992;2023-07-28T08:27:36;4.80;;;4.38;;
19842;SDS011;10082;51.038;6.992;2023-07-28T08:30:08;4.30;;;4.00;;
19842;SDS011;10082;51.038;6.992;2023-07-28T08:32:36;3.85;;;3.55;;
19842;SDS011;10082;51.038;6.992;2023-07-28T08:35:04;4.55;;;4.25;;
19842;SDS011;10082;51.038;6.992;2023-07-28T08:37:33;3.97;;;3.70;;
19842;SDS011;10082;51.038;6.992;2023-07-28T08:40:00;4.28;;;3.97;;
19842;SDS011;10082;51.038;6.992;2023-07-28T08:42:34;3.85;;;3.63;;
19842;SDS011;10082;51.038;6.992;2023-07-28T08:45:03;4.22;;;3.92;;
19842;SDS011;10082;51.038;6.992;2023-07-28T08:47:32;4.63;;;4.22;;
19842;SDS011;10082;51.038;6.992;2023-07-28T08:49:59;4.20;;;3.83;;
19842;SDS011;10082;51.038;6.992;2023-07-28T08:52:27;4.53;;;4.22;;
19842;SDS011;10082;51.038;6.992;2023-07-28T08:54:54;4.03;;;3.70;;
19842;SDS011;10082;51.038;6.992;2023-07-28T08:57:24;4.57;;;3.65;;
19842;SDS011;10082;51.038;6.992;2023-07-28T08:59:53;3.35;;;3.15;;
19842;SDS011;10082;51.038;6.992;2023-07-28T09:02:21;3.42;;;3.22;;
19842;SDS011;10082;51.038;6.992;2023-07-28T09:04:49;3.90;;;3.47;;
19842;SDS011;10082;51.038;6.992;2023-07-28T09:07:16;2.88;;;2.67;;
19842;SDS011;10082;51.038;6.992;2023-07-28T09:09:43;3.38;;;3.08;;
19842;SDS011;10082;51.038;6.992;2023-07-28T09:12:12;3.97;;;2.60;;
19842;SDS011;10082;51.038;6.992;2023-07-28T09:14:40;2.90;;;2.70;;
19842;SDS011;10082;51.038;6.992;2023-07-28T09:17:09;3.15;;;2.95;;
19842;SDS011;10082;51.038;6.992;2023-07-28T09:19:51;2.92;;;2.60;;
19842;SDS011;10082;51.038;6.992;2023-07-28T09:22:19;2.75;;;2.50;;
19842;SDS011;10082;51.038;6.992;2023-07-28T09:24:46;3.42;;;2.97;;
19842;SDS011;10082;51.038;6.992;2023-07-28T09:27:21;2.80;;;2.60;;
19842;SDS011;10082;51.038;6.992;2023-07-28T09:29:49;3.17;;;2.60;;
19842;SDS011;10082;51.038;6.992;2023-07-28T09:32:26;3.08;;;2.78;;
19842;SDS011;10082;51.038;6.992;2023-07-28T09:35:05;3.20;;;2.25;;
19842;SDS011;10082;51.038;6.992;2023-07-28T09:37:36;2.40;;;2.30;;
19842;SDS011;10082;51.038;6.992;2023-07-28T09:40:06;2.33;;;2.13;;
19842;SDS011;10082;51.038;6.992;2023-07-28T09:42:39;3.28;;;2.75;;
19842;SDS011;10082;51.038;6.992;2023-07-28T09:45:07;3.03;;;2.72;;
19842;SDS011;10082;51.038;6.992;2023-07-28T09:47:37;3.50;;;3.20;;
19842;SDS011;10082;51.038;6.992;2023-07-28T09:50:05;3.67;;;3.38;;
19842;SDS011;10082;51.038;6.992;2023-07-28T09:52:36;3.58;;;3.30;;
19842;SDS011;10082;51.038;6.992;2023-07-28T09:55:06;3.70;;;3.40;;
19842;SDS011;10082;51.038;6.992;2023-07-28T09:57:37;4.75;;;4.30;;
19842;SDS011;10082;51.038;6.992;2023-07-28T10:00:14;4.55;;;3.92;;
19842;SDS011;10082;51.038;6.992;2023-07-28T10:02:44;4.30;;;3.90;;
19842;SDS011;10082;51.038;6.992;2023-07-28T10:05:11;4.05;;;3.75;;
19842;SDS011;10082;51.038;6.992;2023-07-28T10:07:40;3.72;;;3.42;;
19842;SDS011;10082;51.038;6.992;2023-07-28T10:10:11;4.70;;;3.80;;
19842;SDS011;10082;51.038;6.992;2023-07-28T10:12:42;4.65;;;4.20;;
19842;SDS011;10082;51.038;6.992;2023-07-28T10:15:13;4.57;;;4.28;;
19842;SDS011;10082;51.038;6.992;2023-07-28T10:17:47;4.45;;;4.13;;
19842;SDS011;10082;51.038;6.992;2023-07-28T10:20:31;3.78;;;3.47;;
19842;SDS011;10082;51.038;6.992;2023-07-28T10:23:04;4.63;;;3.08;;
19842;SDS011;10082;51.038;6.992;2023-07-28T10:25:33;2.70;;;2.55;;
19842;SDS011;10082;51.038;6.992;2023-07-28T10:28:02;4.47;;;2.60;;
19842;SDS011;10082;51.038;6.992;2023-07-28T10:30:34;2.45;;;2.25;;
19842;SDS011;10082;51.038;6.992;2023-07-28T10:33:13;2.03;;;1.90;;
19842;SDS011;10082;51.038;6.992;2023-07-28T10:35:53;4.00;;;2.47;;
19842;SDS011;10082;51.038;6.992;2023-07-28T10:38:30;2.42;;;2.08;;
19842;SDS011;10082;51.038;6.992;2023-07-28T10:41:08;3.70;;;2.10;;
19842;SDS011;10082;51.038;6.992;2023-07-28T10:43:37;2.13;;;1.98;;
19842;SDS011;10082;51.038;6.992;2023-07-28T10:46:05;2.03;;;1.80;;
19842;SDS011;10082;51.038;6.992;2023-07-28T10:48:35;2.10;;;2.00;;
19842;SDS011;10082;51.038;6.992;2023-07-28T10:51:04;2.63;;;2.30;;
19842;SDS011;10082;51.038;6.992;2023-07-28T10:53:32;2.58;;;2.33;;
19842;SDS011;10082;51.038;6.992;2023-07-28T10:56:00;2.80;;;2.60;;
19842;SDS011;10082;51.038;6.992;2023-07-28T10:58:29;3.40;;;3.10;;
19842;SDS011;10082;51.038;6.992;2023-07-28T11:00:56;3.05;;;2.80;;
19842;SDS011;10082;51.038;6.992;2023-07-28T11:03:23;3.97;;;2.17;;
19842;SDS011;10082;51.038;6.992;2023-07-28T11:05:53;1.98;;;1.80;;
19842;SDS011;10082;51.038;6.992;2023-07-28T11:08:21;2.55;;;2.03;;
19842;SDS011;10082;51.038;6.992;2023-07-28T11:10:49;2.65;;;1.70;;
19842;SDS011;10082;51.038;6.992;2023-07-28T11:13:19;2.25;;;1.67;;
19842;SDS011;10082;51.038;6.992;2023-07-28T11:15:47;1.35;;;1.25;;
19842;SDS011;10082;51.038;6.992;2023-07-28T11:18:15;1.58;;;1.48;;
19842;SDS011;10082;51.038;6.992;2023-07-28T11:20:42;1.55;;;1.35;;
19842;SDS011;10082;51.038;6.992;2023-07-28T11:23:13;1.67;;;1.58;;
19842;SDS011;10082;51.038;6.992;2023-07-28T11:25:40;1.55;;;1.45;;
19842;SDS011;10082;51.038;6.992;2023-07-28T11:28:09;1.52;;;1.42;;
19842;SDS011;10082;51.038;6.992;2023-07-28T11:30:37;1.73;;;1.63;;
19842;SDS011;10082;51.038;6.992;2023-07-28T11:33:08;1.75;;;1.60;;
19842;SDS011;10082;51.038;6.992;2023-07-28T11:35:37;1.52;;;1.40;;
19842;SDS011;10082;51.038;6.992;2023-07-28T11:38:05;1.70;;;1.40;;
19842;SDS011;10082;51.038;6.992;2023-07-28T11:40:36;1.50;;;1.40;;
19842;SDS011;10082;51.038;6.992;2023-07-28T11:43:04;1.60;;;1.50;;
19842;SDS011;10082;51.038;6.992;2023-07-28T11:45:32;1.52;;;1.30;;
19842;SDS011;10082;51.038;6.992;2023-07-28T11:47:59;1.30;;;1.23;;
19842;SDS011;10082;51.038;6.992;2023-07-28T11:50:29;2.35;;;1.35;;
19842;SDS011;10082;51.038;6.992;2023-07-28T11:52:57;1.25;;;1.25;;
19842;SDS011;10082;51.038;6.992;2023-07-28T11:55:27;1.85;;;1.20;;
19842;SDS011;10082;51.038;6.992;2023-07-28T11:57:57;1.27;;;1.17;;
19842;SDS011;10082;51.038;6.992;2023-07-28T12:00:30;1.20;;;1.10;;
19842;SDS011;10082;51.038;6.992;2023-07-28T12:03:06;2.60;;;0.90;;
19842;SDS011;10082;51.038;6.992;2023-07-28T12:05:36;1.35;;;0.80;;
19842;SDS011;10082;51.038;6.992;2023-07-28T12:08:04;0.80;;;0.80;;
19842;SDS011;10082;51.038;6.992;2023-07-28T12:10:32;0.88;;;0.88;;
19842;SDS011;10082;51.038;6.992;2023-07-28T12:13:05;0.82;;;0.82;;
19842;SDS011;10082;51.038;6.992;2023-07-28T12:15:33;1.02;;;0.82;;
19842;SDS011;10082;51.038;6.992;2023-07-28T12:18:01;0.98;;;0.98;;
19842;SDS011;10082;51.038;6.992;2023-07-28T12:20:32;1.10;;;1.00;;
19842;SDS011;10082;51.038;6.992;2023-07-28T12:23:02;1.23;;;1.00;;
19842;SDS011;10082;51.038;6.992;2023-07-28T12:25:30;0.90;;;0.90;;
19842;SDS011;10082;51.038;6.992;2023-07-28T12:27:58;1.00;;;1.00;;
19842;SDS011;10082;51.038;6.992;2023-07-28T12:30:27;1.08;;;1.02;;
19842;SDS011;10082;51.038;6.992;2023-07-28T12:32:54;1.00;;;1.00;;
19842;SDS011;10082;51.038;6.992;2023-07-28T12:35:22;0.80;;;0.80;;
19842;SDS011;10082;51.038;6.992;2023-07-28T12:37:49;1.42;;;0.80;;
19842;SDS011;10082;51.038;6.992;2023-07-28T12:40:17;1.65;;;0.90;;
19842;SDS011;10082;51.038;6.992;2023-07-28T12:42:45;1.10;;;1.05;;
19842;SDS011;10082;51.038;6.992;2023-07-28T12:45:13;4.95;;;1.10;;
19842;SDS011;10082;51.038;6.992;2023-07-28T12:47:42;1.13;;;1.10;;
19842;SDS011;10082;51.038;6.992;2023-07-28T12:50:09;2.65;;;1.10;;
19842;SDS011;10082;51.038;6.992;2023-07-28T12:52:41;1.25;;;1.15;;
19842;SDS011;10082;51.038;6.992;2023-07-28T12:55:08;1.63;;;1.05;;
19842;SDS011;10082;51.038;6.992;2023-07-28T12:57:35;1.35;;;1.02;;
19842;SDS011;10082;51.038;6.992;2023-07-28T13:00:03;2.22;;;1.20;;
19842;SDS011;10082;51.038;6.992;2023-07-28T13:02:39;1.23;;;0.90;;
19842;SDS011;10082;51.038;6.992;2023-07-28T13:05:12;1.17;;;1.10;;
19842;SDS011;10082;51.038;6.992;2023-07-28T13:07:41;1.73;;;1.20;;
19842;SDS011;10082;51.038;6.992;2023-07-28T13:10:09;1.70;;;1.10;;
19842;SDS011;10082;51.038;6.992;2023-07-28T13:12:38;1.98;;;1.30;;
19842;SDS011;10082;51.038;6.992;2023-07-28T13:15:06;1.80;;;1.38;;
19842;SDS011;10082;51.038;6.992;2023-07-28T13:17:33;2.05;;;1.30;;
19842;SDS011;10082;51.038;6.992;2023-07-28T13:20:02;2.85;;;1.38;;
19842;SDS011;10082;51.038;6.992;2023-07-28T13:22:31;1.92;;;1.20;;
19842;SDS011;10082;51.038;6.992;2023-07-28T13:24:58;1.17;;;0.98;;
19842;SDS011;10082;51.038;6.992;2023-07-28T13:27:26;1.10;;;1.10;;
19842;SDS011;10082;51.038;6.992;2023-07-28T13:29:55;2.25;;;1.55;;
19842;SDS011;10082;51.038;6.992;2023-07-28T13:32:23;0.90;;;0.90;;
19842;SDS011;10082;51.038;6.992;2023-07-28T13:34:51;1.20;;;1.10;;
19842;SDS011;10082;51.038;6.992;2023-07-28T13:37:21;1.80;;;0.93;;
19842;SDS011;10082;51.038;6.992;2023-07-28T13:39:48;1.30;;;1.20;;
19842;SDS011;10082;51.038;6.992;2023-07-28T13:42:17;1.00;;;1.00;;
19842;SDS011;10082;51.038;6.992;2023-07-28T13:44:44;1.10;;;1.00;;
19842;SDS011;10082;51.038;6.992;2023-07-28T13:47:12;0.80;;;0.80;;
19842;SDS011;10082;51.038;6.992;2023-07-28T13:49:39;1.63;;;1.10;;
19842;SDS011;10082;51.038;6.992;2023-07-28T13:52:07;1.13;;;1.08;;
19842;SDS011;10082;51.038;6.992;2023-07-28T13:54:35;1.35;;;1.25;;
19842;SDS011;10082;51.038;6.992;2023-07-28T13:57:03;1.23;;;1.20;;
19842;SDS011;10082;51.038;6.992;2023-07-28T13:59:31;1.25;;;1.15;;
19842;SDS011;10082;51.038;6.992;2023-07-28T14:02:01;1.02;;;1.02;;
19842;SDS011;10082;51.038;6.992;2023-07-28T14:04:30;2.85;;;1.15;;
19842;SDS011;10082;51.038;6.992;2023-07-28T14:07:02;1.58;;;1.10;;
19842;SDS011;10082;51.038;6.992;2023-07-28T14:09:29;2.72;;;1.27;;
19842;SDS011;10082;51.038;6.992;2023-07-28T14:12:00;2.55;;;1.08;;
19842;SDS011;10082;51.038;6.992;2023-07-28T14:14:28;1.35;;;1.25;;
19842;SDS011;10082;51.038;6.992;2023-07-28T14:16:57;1.10;;;1.00;;
19842;SDS011;10082;51.038;6.992;2023-07-28T14:19:25;0.80;;;0.80;;
19842;SDS011;10082;51.038;6.992;2023-07-28T14:21:52;1.17;;;1.10;;
19842;SDS011;10082;51.038;6.992;2023-07-28T14:24:21;1.63;;;1.30;;
19842;SDS011;10082;51.038;6.992;2023-07-28T14:26:48;0.98;;;0.98;;
19842;SDS011;10082;51.038;6.992;2023-07-28T14:29:17;1.08;;;1.08;;
19842;SDS011;10082;51.038;6.992;2023-07-28T14:31:46;1.30;;;1.20;;
19842;SDS011;10082;51.038;6.992;2023-07-28T14:34:14;1.40;;;1.30;;
19842;SDS011;10082;51.038;6.992;2023-07-28T14:36:41;1.05;;;1.05;;
19842;SDS011;10082;51.038;6.992;2023-07-28T14:39:08;2.80;;;1.35;;
19842;SDS011;10082;51.038;6.992;2023-07-28T14:41:36;1.45;;;1.35;;
19842;SDS011;10082;51.038;6.992;2023-07-28T14:44:03;1.45;;;1.35;;
19842;SDS011;10082;51.038;6.992;2023-07-28T14:46:32;1.63;;;1.52;;
19842;SDS011;10082;51.038;6.992;2023-07-28T14:49:03;1.50;;;1.40;;
19842;SDS011;10082;51.038;6.992;2023-07-28T14:51:30;1.58;;;1.35;;
19842;SDS011;10082;51.038;6.992;2023-07-28T14:53:58;1.48;;;1.38;;
19842;SDS011;10082;51.038;6.992;2023-07-28T14:56:25;1.60;;;1.50;;
19842;SDS011;10082;51.038;6.992;2023-07-28T14:58:53;1.52;;;1.30;;
19842;SDS011;10082;51.038;6.992;2023-07-28T15:01:21;1.30;;;1.20;;
19842;SDS011;10082;51.038;6.992;2023-07-28T15:03:50;1.50;;;1.40;;
19842;SDS011;10082;51.038;6.992;2023-07-28T15:06:17;2.00;;;1.40;;